sensor_id;sensor_type;location;lat;lon;timestamp;P1;durP1;ratioP1;P2;durP2;ratioP2
9334;SDS011;4706;41.844;26.082;2023-02-01T00:01:21;4.77;;;4.20;;
9334;SDS011;4706;41.844;26.082;2023-02-01T00:03:46;5.10;;;4.60;;
9334;SDS011;4706;41.844;26.082;2023-02-01T00:06:12;4.87;;;4.47;;
9334;SDS011;4706;41.844;26.082;2023-02-01T00:08:37;5.33;;;4.83;;
9334;SDS011;4706;41.844;26.082;2023-02-01T00:11:10;5.90;;;5.40;;
9334;SDS011;4706;41.844;26.082;2023-02-01T00:13:37;5.00;;;4.60;;
9334;SDS011;4706;41.844;26.082;2023-02-01T00:16:11;4.70;;;4.30;;
9334;SDS011;4706;41.844;26.082;2023-02-01T00:18:43;5.07;;;4.67;;
9334;SDS011;4706;41.844;26.082;2023-02-01T00:21:10;5.10;;;4.70;;
9334;SDS011;4706;41.844;26.082;2023-02-01T00:23:36;5.70;;;5.20;;
9334;SDS011;4706;41.844;26.082;2023-02-01T00:26:04;5.30;;;4.87;;
9334;SDS011;4706;41.844;26.082;2023-02-01T00:28:31;5.00;;;4.50;;
9334;SDS011;4706;41.844;26.082;2023-02-01T00:30:58;6.60;;;6.00;;
9334;SDS011;4706;41.844;26.082;2023-02-01T00:33:24;7.90;;;7.10;;
9334;SDS011;4706;41.844;26.082;2023-02-01T00:35:50;6.10;;;5.33;;
9334;SDS011;4706;41.844;26.082;2023-02-01T00:38:16;5.87;;;5.30;;
9334;SDS011;4706;41.844;26.082;2023-02-01T00:40:41;5.57;;;4.90;;
9334;SDS011;4706;41.844;26.082;2023-02-01T00:43:07;7.00;;;4.70;;
9334;SDS011;4706;41.844;26.082;2023-02-01T00:45:32;5.23;;;4.70;;
9334;SDS011;4706;41.844;26.082;2023-02-01T00:47:58;5.10;;;4.60;;
9334;SDS011;4706;41.844;26.082;2023-02-01T00:50:23;5.37;;;4.83;;
9334;SDS011;4706;41.844;26.082;2023-02-01T00:52:49;5.73;;;5.00;;
9334;SDS011;4706;41.844;26.082;2023-02-01T00:55:14;6.17;;;5.53;;
9334;SDS011;4706;41.844;26.082;2023-02-01T00:57:39;7.77;;;5.83;;
9334;SDS011;4706;41.844;26.082;2023-02-01T01:00:05;10.23;;;6.80;;
9334;SDS011;4706;41.844;26.082;2023-02-01T01:02:31;6.40;;;5.33;;
9334;SDS011;4706;41.844;26.082;2023-02-01T01:04:57;7.70;;;5.37;;
9334;SDS011;4706;41.844;26.082;2023-02-01T01:07:22;5.87;;;5.27;;
9334;SDS011;4706;41.844;26.082;2023-02-01T01:09:47;6.47;;;4.87;;
9334;SDS011;4706;41.844;26.082;2023-02-01T01:12:13;5.30;;;4.80;;
9334;SDS011;4706;41.844;26.082;2023-02-01T01:14:38;4.93;;;4.50;;
9334;SDS011;4706;41.844;26.082;2023-02-01T01:17:04;4.87;;;4.47;;
9334;SDS011;4706;41.844;26.082;2023-02-01T01:19:29;5.10;;;4.67;;
9334;SDS011;4706;41.844;26.082;2023-02-01T01:21:55;4.50;;;4.10;;
9334;SDS011;4706;41.844;26.082;2023-02-01T01:24:20;5.03;;;4.00;;
9334;SDS011;4706;41.844;26.082;2023-02-01T01:26:46;5.13;;;4.63;;
9334;SDS011;4706;41.844;26.082;2023-02-01T01:29:11;5.57;;;5.07;;
9334;SDS011;4706;41.844;26.082;2023-02-01T01:31:37;5.77;;;4.70;;
9334;SDS011;4706;41.844;26.082;2023-02-01T01:34:02;4.87;;;4.20;;
9334;SDS011;4706;41.844;26.082;2023-02-01T01:36:28;4.83;;;4.33;;
9334;SDS011;4706;41.844;26.082;2023-02-01T01:38:54;4.67;;;4.17;;
9334;SDS011;4706;41.844;26.082;2023-02-01T01:41:20;5.07;;;4.50;;
9334;SDS011;4706;41.844;26.082;2023-02-01T01:43:52;4.50;;;4.10;;
9334;SDS011;4706;41.844;26.082;2023-02-01T01:51:33;6.37;;;4.40;;
9334;SDS011;4706;41.844;26.082;2023-02-01T01:54:05;6.90;;;5.03;;
9334;SDS011;4706;41.844;26.082;2023-02-01T01:56:37;9.87;;;5.17;;
9334;SDS011;4706;41.844;26.082;2023-02-01T01:59:03;5.73;;;5.03;;
9334;SDS011;4706;41.844;26.082;2023-02-01T02:01:30;6.67;;;4.70;;
9334;SDS011;4706;41.844;26.082;2023-02-01T02:03:56;4.97;;;4.47;;
9334;SDS011;4706;41.844;26.082;2023-02-01T02:07:09;10.40;;;5.30;;
9334;SDS011;4706;41.844;26.082;2023-02-01T02:09:27;11.57;;;6.47;;
9334;SDS011;4706;41.844;26.082;2023-02-01T02:11:55;11.70;;;6.23;;
9334;SDS011;4706;41.844;26.082;2023-02-01T02:14:21;11.73;;;6.00;;
9334;SDS011;4706;41.844;26.082;2023-02-01T02:16:52;8.73;;;6.33;;
9334;SDS011;4706;41.844;26.082;2023-02-01T02:42:01;10.67;;;9.70;;
9334;SDS011;4706;41.844;26.082;2023-02-01T02:45:00;11.80;;;10.70;;
9334;SDS011;4706;41.844;26.082;2023-02-01T02:48:04;11.03;;;9.93;;
9334;SDS011;4706;41.844;26.082;2023-02-01T02:53:41;12.67;;;11.50;;
9334;SDS011;4706;41.844;26.082;2023-02-01T02:56:46;13.90;;;12.60;;
9334;SDS011;4706;41.844;26.082;2023-02-01T02:59:32;13.10;;;11.90;;
9334;SDS011;4706;41.844;26.082;2023-02-01T03:02:18;13.63;;;12.43;;
9334;SDS011;4706;41.844;26.082;2023-02-01T03:05:03;12.87;;;11.73;;
9334;SDS011;4706;41.844;26.082;2023-02-01T03:10:34;14.97;;;13.47;;
9334;SDS011;4706;41.844;26.082;2023-02-01T03:13:02;13.30;;;12.00;;
9334;SDS011;4706;41.844;26.082;2023-02-01T03:15:38;14.03;;;12.73;;
9334;SDS011;4706;41.844;26.082;2023-02-01T03:18:13;14.57;;;13.17;;
9334;SDS011;4706;41.844;26.082;2023-02-01T03:20:44;13.67;;;12.37;;
9334;SDS011;4706;41.844;26.082;2023-02-01T03:23:13;13.60;;;12.30;;
9334;SDS011;4706;41.844;26.082;2023-02-01T03:25:42;13.80;;;12.40;;
9334;SDS011;4706;41.844;26.082;2023-02-01T03:28:09;15.13;;;13.53;;
9334;SDS011;4706;41.844;26.082;2023-02-01T03:30:37;15.57;;;14.00;;
9334;SDS011;4706;41.844;26.082;2023-02-01T03:33:08;15.03;;;13.57;;
9334;SDS011;4706;41.844;26.082;2023-02-01T03:35:48;16.97;;;15.27;;
9334;SDS011;4706;41.844;26.082;2023-02-01T03:43:39;14.93;;;13.50;;
9334;SDS011;4706;41.844;26.082;2023-02-01T03:46:14;13.97;;;12.57;;
9334;SDS011;4706;41.844;26.082;2023-02-01T03:48:44;15.07;;;13.57;;
9334;SDS011;4706;41.844;26.082;2023-02-01T03:51:09;13.87;;;12.57;;
9334;SDS011;4706;41.844;26.082;2023-02-01T03:53:37;14.13;;;12.73;;
9334;SDS011;4706;41.844;26.082;2023-02-01T03:56:05;13.20;;;12.00;;
9334;SDS011;4706;41.844;26.082;2023-02-01T03:58:31;13.33;;;12.03;;
9334;SDS011;4706;41.844;26.082;2023-02-01T04:00:58;14.33;;;12.83;;
9334;SDS011;4706;41.844;26.082;2023-02-01T04:03:25;14.77;;;12.97;;
9334;SDS011;4706;41.844;26.082;2023-02-01T04:05:52;14.30;;;12.83;;
9334;SDS011;4706;41.844;26.082;2023-02-01T04:08:21;12.43;;;11.13;;
9334;SDS011;4706;41.844;26.082;2023-02-01T04:10:48;12.50;;;9.83;;
9334;SDS011;4706;41.844;26.082;2023-02-01T04:13:13;11.83;;;9.17;;
9334;SDS011;4706;41.844;26.082;2023-02-01T04:15:39;11.90;;;8.83;;
9334;SDS011;4706;41.844;26.082;2023-02-01T04:18:04;10.17;;;9.20;;
9334;SDS011;4706;41.844;26.082;2023-02-01T04:20:30;9.77;;;8.77;;
9334;SDS011;4706;41.844;26.082;2023-02-01T04:22:56;9.83;;;8.33;;
9334;SDS011;4706;41.844;26.082;2023-02-01T04:25:21;9.70;;;8.33;;
9334;SDS011;4706;41.844;26.082;2023-02-01T04:27:47;10.00;;;9.07;;
9334;SDS011;4706;41.844;26.082;2023-02-01T04:30:13;11.43;;;8.73;;
9334;SDS011;4706;41.844;26.082;2023-02-01T04:32:39;14.50;;;12.60;;
9334;SDS011;4706;41.844;26.082;2023-02-01T04:35:05;11.43;;;9.07;;
9334;SDS011;4706;41.844;26.082;2023-02-01T04:37:31;8.80;;;7.90;;
9334;SDS011;4706;41.844;26.082;2023-02-01T04:39:57;8.30;;;7.60;;
9334;SDS011;4706;41.844;26.082;2023-02-01T04:42:23;8.10;;;7.40;;
9334;SDS011;4706;41.844;26.082;2023-02-01T04:44:51;8.83;;;8.00;;
9334;SDS011;4706;41.844;26.082;2023-02-01T04:47:16;8.90;;;8.00;;
9334;SDS011;4706;41.844;26.082;2023-02-01T04:49:42;9.10;;;8.20;;
9334;SDS011;4706;41.844;26.082;2023-02-01T04:52:07;8.70;;;7.90;;
9334;SDS011;4706;41.844;26.082;2023-02-01T04:54:33;9.23;;;8.30;;
9334;SDS011;4706;41.844;26.082;2023-02-01T04:56:59;9.60;;;8.67;;
9334;SDS011;4706;41.844;26.082;2023-02-01T04:59:24;10.07;;;9.07;;
9334;SDS011;4706;41.844;26.082;2023-02-01T05:01:50;10.60;;;9.50;;
9334;SDS011;4706;41.844;26.082;2023-02-01T05:04:15;10.20;;;9.20;;
9334;SDS011;4706;41.844;26.082;2023-02-01T05:06:43;9.47;;;8.67;;
9334;SDS011;4706;41.844;26.082;2023-02-01T05:09:09;10.27;;;8.43;;
9334;SDS011;4706;41.844;26.082;2023-02-01T05:11:35;8.77;;;7.60;;
9334;SDS011;4706;41.844;26.082;2023-02-01T05:14:19;9.00;;;8.03;;
9334;SDS011;4706;41.844;26.082;2023-02-01T05:16:44;9.83;;;8.83;;
9334;SDS011;4706;41.844;26.082;2023-02-01T05:19:10;10.13;;;8.33;;
9334;SDS011;4706;41.844;26.082;2023-02-01T05:21:35;10.93;;;9.33;;
9334;SDS011;4706;41.844;26.082;2023-02-01T05:24:01;11.90;;;10.60;;
9334;SDS011;4706;41.844;26.082;2023-02-01T05:26:37;14.33;;;11.23;;
9334;SDS011;4706;41.844;26.082;2023-02-01T05:29:04;13.40;;;12.03;;
9334;SDS011;4706;41.844;26.082;2023-02-01T05:31:30;14.57;;;12.97;;
9334;SDS011;4706;41.844;26.082;2023-02-01T05:33:56;15.97;;;13.63;;
9334;SDS011;4706;41.844;26.082;2023-02-01T05:36:21;16.37;;;13.17;;
9334;SDS011;4706;41.844;26.082;2023-02-01T05:38:47;16.50;;;14.03;;
9334;SDS011;4706;41.844;26.082;2023-02-01T05:41:12;18.77;;;15.40;;
9334;SDS011;4706;41.844;26.082;2023-02-01T05:43:38;21.07;;;17.97;;
9334;SDS011;4706;41.844;26.082;2023-02-01T05:46:03;23.47;;;20.40;;
9334;SDS011;4706;41.844;26.082;2023-02-01T05:48:29;21.17;;;18.97;;
9334;SDS011;4706;41.844;26.082;2023-02-01T05:50:55;18.57;;;16.60;;
9334;SDS011;4706;41.844;26.082;2023-02-01T05:53:20;16.37;;;13.67;;
9334;SDS011;4706;41.844;26.082;2023-02-01T05:55:46;18.47;;;13.77;;
9334;SDS011;4706;41.844;26.082;2023-02-01T05:58:11;21.37;;;14.23;;
9334;SDS011;4706;41.844;26.082;2023-02-01T06:00:37;17.47;;;13.63;;
9334;SDS011;4706;41.844;26.082;2023-02-01T06:03:03;16.87;;;13.10;;
9334;SDS011;4706;41.844;26.082;2023-02-01T06:05:28;16.23;;;13.33;;
9334;SDS011;4706;41.844;26.082;2023-02-01T06:07:53;15.57;;;12.37;;
9334;SDS011;4706;41.844;26.082;2023-02-01T06:10:19;12.73;;;11.43;;
9334;SDS011;4706;41.844;26.082;2023-02-01T06:12:45;14.10;;;10.70;;
9334;SDS011;4706;41.844;26.082;2023-02-01T06:15:12;15.33;;;13.93;;
9334;SDS011;4706;41.844;26.082;2023-02-01T06:17:40;16.60;;;14.90;;
9334;SDS011;4706;41.844;26.082;2023-02-01T06:20:08;16.73;;;15.03;;
9334;SDS011;4706;41.844;26.082;2023-02-01T06:22:34;33.20;;;27.70;;
9334;SDS011;4706;41.844;26.082;2023-02-01T06:25:01;48.17;;;38.60;;
9334;SDS011;4706;41.844;26.082;2023-02-01T06:27:28;25.93;;;23.17;;
9334;SDS011;4706;41.844;26.082;2023-02-01T06:29:53;24.73;;;21.07;;
9334;SDS011;4706;41.844;26.082;2023-02-01T06:32:20;24.40;;;21.53;;
9334;SDS011;4706;41.844;26.082;2023-02-01T06:34:46;27.13;;;22.90;;
9334;SDS011;4706;41.844;26.082;2023-02-01T06:37:11;19.00;;;16.47;;
9334;SDS011;4706;41.844;26.082;2023-02-01T06:39:37;16.80;;;14.50;;
9334;SDS011;4706;41.844;26.082;2023-02-01T06:42:03;20.13;;;15.50;;
9334;SDS011;4706;41.844;26.082;2023-02-01T06:44:28;24.63;;;17.87;;
9334;SDS011;4706;41.844;26.082;2023-02-01T06:46:54;40.73;;;29.77;;
9334;SDS011;4706;41.844;26.082;2023-02-01T06:49:20;26.30;;;20.63;;
9334;SDS011;4706;41.844;26.082;2023-02-01T06:51:46;16.70;;;14.90;;
9334;SDS011;4706;41.844;26.082;2023-02-01T06:54:11;17.70;;;14.33;;
9334;SDS011;4706;41.844;26.082;2023-02-01T06:56:37;16.07;;;14.00;;
9334;SDS011;4706;41.844;26.082;2023-02-01T06:59:06;16.17;;;13.97;;
9334;SDS011;4706;41.844;26.082;2023-02-01T07:01:33;14.70;;;12.17;;
9334;SDS011;4706;41.844;26.082;2023-02-01T07:03:59;14.97;;;12.27;;
9334;SDS011;4706;41.844;26.082;2023-02-01T07:06:25;15.83;;;13.37;;
9334;SDS011;4706;41.844;26.082;2023-02-01T07:08:50;15.40;;;13.07;;
9334;SDS011;4706;41.844;26.082;2023-02-01T07:11:17;12.43;;;10.90;;
9334;SDS011;4706;41.844;26.082;2023-02-01T07:13:43;14.40;;;10.60;;
9334;SDS011;4706;41.844;26.082;2023-02-01T07:16:10;12.10;;;9.93;;
9334;SDS011;4706;41.844;26.082;2023-02-01T07:18:37;11.73;;;10.00;;
9334;SDS011;4706;41.844;26.082;2023-02-01T07:21:03;10.97;;;8.63;;
9334;SDS011;4706;41.844;26.082;2023-02-01T07:23:28;10.63;;;8.10;;
9334;SDS011;4706;41.844;26.082;2023-02-01T07:25:55;11.30;;;8.70;;
9334;SDS011;4706;41.844;26.082;2023-02-01T07:28:22;11.87;;;8.60;;
9334;SDS011;4706;41.844;26.082;2023-02-01T07:30:48;13.77;;;9.37;;
9334;SDS011;4706;41.844;26.082;2023-02-01T07:33:22;13.40;;;9.43;;
9334;SDS011;4706;41.844;26.082;2023-02-01T07:35:49;12.53;;;10.00;;
9334;SDS011;4706;41.844;26.082;2023-02-01T07:38:15;9.77;;;8.40;;
9334;SDS011;4706;41.844;26.082;2023-02-01T07:40:41;10.57;;;8.13;;
9334;SDS011;4706;41.844;26.082;2023-02-01T07:43:07;10.27;;;8.75;;
9334;SDS011;4706;41.844;26.082;2023-02-01T07:45:33;7.90;;;7.20;;
9334;SDS011;4706;41.844;26.082;2023-02-01T07:48:00;7.67;;;6.87;;
9334;SDS011;4706;41.844;26.082;2023-02-01T07:50:26;10.07;;;7.38;;
9334;SDS011;4706;41.844;26.082;2023-02-01T07:52:51;8.05;;;7.22;;
9334;SDS011;4706;41.844;26.082;2023-02-01T07:55:19;7.82;;;7.13;;
9334;SDS011;4706;41.844;26.082;2023-02-01T07:57:45;7.45;;;6.70;;
9334;SDS011;4706;41.844;26.082;2023-02-01T08:00:11;8.70;;;7.85;;
9334;SDS011;4706;41.844;26.082;2023-02-01T08:02:58;9.20;;;6.82;;
9334;SDS011;4706;41.844;26.082;2023-02-01T08:05:24;9.07;;;7.75;;
9334;SDS011;4706;41.844;26.082;2023-02-01T08:07:49;7.80;;;7.00;;
9334;SDS011;4706;41.844;26.082;2023-02-01T08:10:15;11.23;;;9.05;;
9334;SDS011;4706;41.844;26.082;2023-02-01T08:12:41;6.60;;;6.00;;
9334;SDS011;4706;41.844;26.082;2023-02-01T08:15:07;7.28;;;6.57;;
9334;SDS011;4706;41.844;26.082;2023-02-01T08:17:33;8.57;;;7.47;;
9334;SDS011;4706;41.844;26.082;2023-02-01T08:19:58;6.80;;;6.20;;
9334;SDS011;4706;41.844;26.082;2023-02-01T08:22:24;12.85;;;11.82;;
9334;SDS011;4706;41.844;26.082;2023-02-01T08:24:49;8.15;;;7.35;;
9334;SDS011;4706;41.844;26.082;2023-02-01T08:27:15;6.65;;;5.93;;
9334;SDS011;4706;41.844;26.082;2023-02-01T08:29:40;7.40;;;6.70;;
9334;SDS011;4706;41.844;26.082;2023-02-01T08:32:06;7.00;;;6.32;;
9334;SDS011;4706;41.844;26.082;2023-02-01T08:34:31;6.57;;;5.97;;
9334;SDS011;4706;41.844;26.082;2023-02-01T08:36:57;7.38;;;6.03;;
9334;SDS011;4706;41.844;26.082;2023-02-01T08:39:24;8.00;;;7.30;;
9334;SDS011;4706;41.844;26.082;2023-02-01T08:41:50;6.72;;;5.90;;
9334;SDS011;4706;41.844;26.082;2023-02-01T08:44:34;8.65;;;6.55;;
9334;SDS011;4706;41.844;26.082;2023-02-01T08:46:59;5.70;;;5.20;;
9334;SDS011;4706;41.844;26.082;2023-02-01T08:49:25;5.90;;;5.30;;
9334;SDS011;4706;41.844;26.082;2023-02-01T08:51:52;6.70;;;6.00;;
9334;SDS011;4706;41.844;26.082;2023-02-01T08:54:17;4.90;;;4.50;;
9334;SDS011;4706;41.844;26.082;2023-02-01T08:56:43;6.28;;;5.10;;
9334;SDS011;4706;41.844;26.082;2023-02-01T08:59:08;7.20;;;6.15;;
9334;SDS011;4706;41.844;26.082;2023-02-01T09:01:34;7.10;;;6.07;;
9334;SDS011;4706;41.844;26.082;2023-02-01T09:03:59;6.03;;;5.20;;
9334;SDS011;4706;41.844;26.082;2023-02-01T09:06:25;6.32;;;5.72;;
9334;SDS011;4706;41.844;26.082;2023-02-01T09:08:50;6.47;;;5.05;;
9334;SDS011;4706;41.844;26.082;2023-02-01T09:11:17;6.53;;;5.15;;
9334;SDS011;4706;41.844;26.082;2023-02-01T09:13:44;5.50;;;5.00;;
9334;SDS011;4706;41.844;26.082;2023-02-01T09:16:11;6.18;;;5.03;;
9334;SDS011;4706;41.844;26.082;2023-02-01T09:18:37;5.93;;;5.18;;
9334;SDS011;4706;41.844;26.082;2023-02-01T09:21:06;4.43;;;4.10;;
9334;SDS011;4706;41.844;26.082;2023-02-01T09:23:32;7.18;;;4.63;;
9334;SDS011;4706;41.844;26.082;2023-02-01T09:26:02;4.85;;;3.97;;
9334;SDS011;4706;41.844;26.082;2023-02-01T09:28:29;4.30;;;3.90;;
9334;SDS011;4706;41.844;26.082;2023-02-01T09:30:58;9.52;;;4.85;;
9334;SDS011;4706;41.844;26.082;2023-02-01T09:33:25;6.50;;;4.28;;
9334;SDS011;4706;41.844;26.082;2023-02-01T09:35:55;4.90;;;3.85;;
9334;SDS011;4706;41.844;26.082;2023-02-01T09:38:22;13.07;;;4.65;;
9334;SDS011;4706;41.844;26.082;2023-02-01T09:40:47;9.95;;;7.15;;
9334;SDS011;4706;41.844;26.082;2023-02-01T09:48:41;7.90;;;3.97;;
9334;SDS011;4706;41.844;26.082;2023-02-01T09:51:16;6.65;;;3.95;;
9334;SDS011;4706;41.844;26.082;2023-02-01T09:54:22;17.65;;;4.85;;
9334;SDS011;4706;41.844;26.082;2023-02-01T09:56:47;4.32;;;3.13;;
9334;SDS011;4706;41.844;26.082;2023-02-01T10:01:55;7.05;;;3.67;;
9334;SDS011;4706;41.844;26.082;2023-02-01T10:04:22;23.42;;;5.90;;
9334;SDS011;4706;41.844;26.082;2023-02-01T10:06:51;6.53;;;3.85;;
9334;SDS011;4706;41.844;26.082;2023-02-01T10:12:41;10.75;;;3.45;;
9334;SDS011;4706;41.844;26.082;2023-02-01T10:20:51;5.57;;;3.08;;
9334;SDS011;4706;41.844;26.082;2023-02-01T10:23:44;30.00;;;5.53;;
9334;SDS011;4706;41.844;26.082;2023-02-01T10:26:15;4.90;;;3.58;;
9334;SDS011;4706;41.844;26.082;2023-02-01T10:28:44;4.97;;;3.33;;
9334;SDS011;4706;41.844;26.082;2023-02-01T10:31:14;9.45;;;3.35;;
9334;SDS011;4706;41.844;26.082;2023-02-01T10:33:48;3.30;;;3.00;;
9334;SDS011;4706;41.844;26.082;2023-02-01T10:36:39;7.57;;;3.63;;
9334;SDS011;4706;41.844;26.082;2023-02-01T10:39:08;5.65;;;4.25;;
9334;SDS011;4706;41.844;26.082;2023-02-01T10:41:38;4.88;;;3.50;;
9334;SDS011;4706;41.844;26.082;2023-02-01T10:44:09;7.50;;;4.00;;
9334;SDS011;4706;41.844;26.082;2023-02-01T10:46:39;3.50;;;3.20;;
9334;SDS011;4706;41.844;26.082;2023-02-01T10:49:04;5.50;;;2.67;;
9334;SDS011;4706;41.844;26.082;2023-02-01T10:51:54;4.20;;;3.80;;
9334;SDS011;4706;41.844;26.082;2023-02-01T10:54:35;5.03;;;3.55;;
9334;SDS011;4706;41.844;26.082;2023-02-01T10:57:22;8.75;;;3.67;;
9334;SDS011;4706;41.844;26.082;2023-02-01T10:59:53;6.07;;;3.88;;
9334;SDS011;4706;41.844;26.082;2023-02-01T11:04:48;18.98;;;13.35;;
9334;SDS011;4706;41.844;26.082;2023-02-01T11:07:23;9.85;;;4.60;;
9334;SDS011;4706;41.844;26.082;2023-02-01T11:09:51;11.25;;;3.80;;
9334;SDS011;4706;41.844;26.082;2023-02-01T11:12:41;4.15;;;3.05;;
9334;SDS011;4706;41.844;26.082;2023-02-01T11:17:39;19.50;;;5.03;;
9334;SDS011;4706;41.844;26.082;2023-02-01T11:22:45;13.25;;;7.13;;
9334;SDS011;4706;41.844;26.082;2023-02-01T11:25:13;15.70;;;4.93;;
9334;SDS011;4706;41.844;26.082;2023-02-01T11:27:40;14.07;;;4.38;;
9334;SDS011;4706;41.844;26.082;2023-02-01T11:30:06;5.85;;;3.90;;
9334;SDS011;4706;41.844;26.082;2023-02-01T11:32:32;23.30;;;6.10;;
9334;SDS011;4706;41.844;26.082;2023-02-01T11:35:02;15.75;;;5.75;;
9334;SDS011;4706;41.844;26.082;2023-02-01T11:37:35;8.30;;;3.90;;
9334;SDS011;4706;41.844;26.082;2023-02-01T11:40:18;13.38;;;5.85;;
9334;SDS011;4706;41.844;26.082;2023-02-01T11:42:54;6.63;;;4.55;;
9334;SDS011;4706;41.844;26.082;2023-02-01T11:45:25;7.97;;;4.75;;
9334;SDS011;4706;41.844;26.082;2023-02-01T11:47:54;5.68;;;4.32;;
9334;SDS011;4706;41.844;26.082;2023-02-01T11:58:49;8.60;;;4.65;;
9334;SDS011;4706;41.844;26.082;2023-02-01T12:06:42;9.80;;;4.60;;
9334;SDS011;4706;41.844;26.082;2023-02-01T12:14:53;11.00;;;4.57;;
9334;SDS011;4706;41.844;26.082;2023-02-01T12:23:14;11.35;;;4.95;;
9334;SDS011;4706;41.844;26.082;2023-02-01T12:26:04;6.03;;;4.43;;
9334;SDS011;4706;41.844;26.082;2023-02-01T12:32:01;5.70;;;4.88;;
9334;SDS011;4706;41.844;26.082;2023-02-01T12:48:33;4.03;;;3.63;;
9334;SDS011;4706;41.844;26.082;2023-02-01T12:51:05;11.02;;;3.97;;
9334;SDS011;4706;41.844;26.082;2023-02-01T12:53:53;4.68;;;3.75;;
9334;SDS011;4706;41.844;26.082;2023-02-01T12:56:34;4.55;;;3.28;;
9334;SDS011;4706;41.844;26.082;2023-02-01T12:59:47;4.78;;;3.30;;
9334;SDS011;4706;41.844;26.082;2023-02-01T13:08:02;6.72;;;3.58;;
9334;SDS011;4706;41.844;26.082;2023-02-01T13:10:48;4.28;;;3.22;;
9334;SDS011;4706;41.844;26.082;2023-02-01T13:13:22;3.83;;;3.15;;
9334;SDS011;4706;41.844;26.082;2023-02-01T13:15:57;7.38;;;3.38;;
9334;SDS011;4706;41.844;26.082;2023-02-01T13:18:35;6.45;;;2.70;;
9334;SDS011;4706;41.844;26.082;2023-02-01T13:21:06;7.82;;;3.10;;
9334;SDS011;4706;41.844;26.082;2023-02-01T13:23:39;4.50;;;3.65;;
9334;SDS011;4706;41.844;26.082;2023-02-01T13:26:06;2.97;;;2.67;;
9334;SDS011;4706;41.844;26.082;2023-02-01T13:29:14;5.88;;;4.60;;
9334;SDS011;4706;41.844;26.082;2023-02-01T13:42:21;5.57;;;2.80;;
9334;SDS011;4706;41.844;26.082;2023-02-01T13:45:36;4.65;;;3.60;;
9334;SDS011;4706;41.844;26.082;2023-02-01T13:47:46;5.15;;;3.60;;
9334;SDS011;4706;41.844;26.082;2023-02-01T13:55:38;3.88;;;2.72;;
9334;SDS011;4706;41.844;26.082;2023-02-01T13:58:18;3.13;;;2.60;;
9334;SDS011;4706;41.844;26.082;2023-02-01T14:00:46;6.70;;;2.53;;
9334;SDS011;4706;41.844;26.082;2023-02-01T14:03:14;3.40;;;2.97;;
9334;SDS011;4706;41.844;26.082;2023-02-01T14:08:22;4.53;;;2.38;;
9334;SDS011;4706;41.844;26.082;2023-02-01T14:11:00;4.35;;;2.80;;
9334;SDS011;4706;41.844;26.082;2023-02-01T14:13:33;2.97;;;2.50;;
9334;SDS011;4706;41.844;26.082;2023-02-01T14:23:47;20.48;;;5.93;;
9334;SDS011;4706;41.844;26.082;2023-02-01T14:47:43;7.50;;;5.97;;
9334;SDS011;4706;41.844;26.082;2023-02-01T15:01:18;5.53;;;4.70;;
9334;SDS011;4706;41.844;26.082;2023-02-01T15:04:05;5.95;;;4.50;;
9334;SDS011;4706;41.844;26.082;2023-02-01T15:06:42;11.27;;;5.80;;
9334;SDS011;4706;41.844;26.082;2023-02-01T15:09:16;8.50;;;5.97;;
9334;SDS011;4706;41.844;26.082;2023-02-01T15:12:05;7.40;;;5.30;;
9334;SDS011;4706;41.844;26.082;2023-02-01T15:17:16;7.68;;;5.50;;
9334;SDS011;4706;41.844;26.082;2023-02-01T15:22:19;9.35;;;6.57;;
9334;SDS011;4706;41.844;26.082;2023-02-01T15:24:51;10.52;;;8.52;;
9334;SDS011;4706;41.844;26.082;2023-02-01T15:27:18;8.68;;;6.55;;
9334;SDS011;4706;41.844;26.082;2023-02-01T15:29:44;10.57;;;6.53;;
9334;SDS011;4706;41.844;26.082;2023-02-01T15:32:27;9.90;;;6.40;;
9334;SDS011;4706;41.844;26.082;2023-02-01T15:34:57;8.00;;;6.85;;
9334;SDS011;4706;41.844;26.082;2023-02-01T15:37:25;10.30;;;6.28;;
9334;SDS011;4706;41.844;26.082;2023-02-01T15:40:05;7.43;;;5.90;;
9334;SDS011;4706;41.844;26.082;2023-02-01T15:42:52;6.40;;;5.18;;
9334;SDS011;4706;41.844;26.082;2023-02-01T15:45:28;7.78;;;6.70;;
9334;SDS011;4706;41.844;26.082;2023-02-01T15:47:57;8.60;;;7.00;;
9334;SDS011;4706;41.844;26.082;2023-02-01T15:50:23;11.10;;;8.98;;
9334;SDS011;4706;41.844;26.082;2023-02-01T15:52:50;14.15;;;10.00;;
9334;SDS011;4706;41.844;26.082;2023-02-01T15:58:17;30.08;;;14.02;;
9334;SDS011;4706;41.844;26.082;2023-02-01T16:06:00;20.98;;;13.20;;
9334;SDS011;4706;41.844;26.082;2023-02-01T16:08:28;16.33;;;11.68;;
9334;SDS011;4706;41.844;26.082;2023-02-01T16:10:59;17.90;;;11.93;;
9334;SDS011;4706;41.844;26.082;2023-02-01T16:13:34;20.90;;;13.55;;
9334;SDS011;4706;41.844;26.082;2023-02-01T16:16:00;23.70;;;16.85;;
9334;SDS011;4706;41.844;26.082;2023-02-01T16:18:25;27.80;;;16.15;;
9334;SDS011;4706;41.844;26.082;2023-02-01T16:20:51;46.15;;;25.52;;
9334;SDS011;4706;41.844;26.082;2023-02-01T16:23:16;22.42;;;14.95;;
9334;SDS011;4706;41.844;26.082;2023-02-01T16:25:42;16.27;;;11.98;;
9334;SDS011;4706;41.844;26.082;2023-02-01T16:28:08;21.50;;;16.85;;
9334;SDS011;4706;41.844;26.082;2023-02-01T16:30:33;28.05;;;24.67;;
9334;SDS011;4706;41.844;26.082;2023-02-01T16:32:59;20.17;;;15.27;;
9334;SDS011;4706;41.844;26.082;2023-02-01T16:35:33;42.47;;;20.73;;
9334;SDS011;4706;41.844;26.082;2023-02-01T16:38:01;23.13;;;17.23;;
9334;SDS011;4706;41.844;26.082;2023-02-01T16:40:37;36.00;;;22.02;;
9334;SDS011;4706;41.844;26.082;2023-02-01T16:43:07;33.78;;;23.92;;
9334;SDS011;4706;41.844;26.082;2023-02-01T16:45:38;27.20;;;19.33;;
9334;SDS011;4706;41.844;26.082;2023-02-01T16:48:05;22.40;;;18.08;;
9334;SDS011;4706;41.844;26.082;2023-02-01T16:50:31;17.48;;;14.27;;
9334;SDS011;4706;41.844;26.082;2023-02-01T16:52:58;22.23;;;17.05;;
9334;SDS011;4706;41.844;26.082;2023-02-01T16:55:24;19.33;;;15.55;;
9334;SDS011;4706;41.844;26.082;2023-02-01T16:57:51;14.52;;;10.13;;
9334;SDS011;4706;41.844;26.082;2023-02-01T17:00:16;14.30;;;9.55;;
9334;SDS011;4706;41.844;26.082;2023-02-01T17:02:42;16.83;;;13.73;;
9334;SDS011;4706;41.844;26.082;2023-02-01T17:05:08;26.08;;;17.25;;
9334;SDS011;4706;41.844;26.082;2023-02-01T17:07:35;15.85;;;13.35;;
9334;SDS011;4706;41.844;26.082;2023-02-01T17:10:03;24.88;;;14.13;;
9334;SDS011;4706;41.844;26.082;2023-02-01T17:12:31;15.35;;;12.93;;
9334;SDS011;4706;41.844;26.082;2023-02-01T17:14:58;25.23;;;16.13;;
9334;SDS011;4706;41.844;26.082;2023-02-01T17:17:25;26.48;;;16.10;;
9334;SDS011;4706;41.844;26.082;2023-02-01T17:19:57;21.45;;;14.95;;
9334;SDS011;4706;41.844;26.082;2023-02-01T17:22:22;64.20;;;44.58;;
9334;SDS011;4706;41.844;26.082;2023-02-01T17:24:48;70.65;;;53.15;;
9334;SDS011;4706;41.844;26.082;2023-02-01T17:27:17;36.50;;;26.48;;
9334;SDS011;4706;41.844;26.082;2023-02-01T17:29:43;51.72;;;39.47;;
9334;SDS011;4706;41.844;26.082;2023-02-01T17:32:21;33.20;;;23.05;;
9334;SDS011;4706;41.844;26.082;2023-02-01T17:34:49;29.88;;;20.58;;
9334;SDS011;4706;41.844;26.082;2023-02-01T17:37:25;25.35;;;18.70;;
9334;SDS011;4706;41.844;26.082;2023-02-01T17:39:53;21.75;;;13.50;;
9334;SDS011;4706;41.844;26.082;2023-02-01T17:42:18;17.80;;;14.00;;
9334;SDS011;4706;41.844;26.082;2023-02-01T17:44:44;52.47;;;36.20;;
9334;SDS011;4706;41.844;26.082;2023-02-01T17:47:10;51.97;;;35.42;;
9334;SDS011;4706;41.844;26.082;2023-02-01T17:49:36;41.78;;;30.35;;
9334;SDS011;4706;41.844;26.082;2023-02-01T17:52:03;34.55;;;25.00;;
9334;SDS011;4706;41.844;26.082;2023-02-01T17:54:29;27.67;;;20.58;;
9334;SDS011;4706;41.844;26.082;2023-02-01T17:56:55;33.53;;;24.90;;
9334;SDS011;4706;41.844;26.082;2023-02-01T17:59:25;36.67;;;28.02;;
9334;SDS011;4706;41.844;26.082;2023-02-01T18:01:51;20.48;;;17.30;;
9334;SDS011;4706;41.844;26.082;2023-02-01T18:04:18;21.67;;;17.30;;
9334;SDS011;4706;41.844;26.082;2023-02-01T18:06:44;50.80;;;25.48;;
9334;SDS011;4706;41.844;26.082;2023-02-01T18:09:09;34.92;;;26.13;;